Aérodrome :
LOGIN :

S'inscrire | Disclaimer

   EN    FR    IT 

 










Légende :    VFR   VFR Marginal   IFR   IFR Intensif   IFR Très Intensif
Visi : 
Plafond : 
>= 8 km
>= 3000ft
5 à 8 km
1000 à 3000 ft
1500m à 5 km
500 à 1000 ft
800 à 1500m
200 à 500 ft
< 800m
< 200 ft
Symboles :   Orages  Brouillard  Fortes neiges  Fortes précipitations  Vent > 20 kt
SIGMETs :   Divers  Orages  Givrage  Turbulence  Onde Orograph.  Cendres Volcan.






- Altitude de l'aérodrome : 1036 ft
- Code IATA : ERF


EDDE - Erfurt

DERNIER METAR :
  • 230750Z AUTO 26007KT CAVOK 21/14 Q1018 NOSIG

METARs EXPIRÉS :
  • 230720Z AUTO 26005KT 220V300 CAVOK 21/15 Q1018
  • 230650Z AUTO 21004KT 180V240 CAVOK 20/14 Q1018 NOSIG
  • 230620Z AUTO 20006KT CAVOK 19/14 Q1018 NOSIG
  • 230550Z AUTO 19006KT CAVOK 19/13 Q1018 NOSIG
  • 230520Z AUTO 19007KT CAVOK 18/12 Q1018 NOSIG
  • 230450Z AUTO 19008KT CAVOK 18/12 Q1018 NOSIG
  • 230420Z AUTO 19008KT CAVOK 18/12 Q1018 NOSIG
  • 230350Z AUTO 18007KT CAVOK 18/13 Q1018 NOSIG
  • 230320Z AUTO 20006KT CAVOK 18/13 Q1018

TAF TAF EDDE
Valide du 23 à 06h jusqu'au 24 à 06h UTC


230500Z 2306/2406 20005KT CAVOK
BECMG 2308/2310 25010KT
TEMPO 2312/2323 27015KT SHRA BKN040CB
PROB30
TEMPO 2312/2322 27015G30KT 2500 TSRA



MET'MAP, la Météo Aéronautique d'un coup d'oeil ! - Copyright ORBIFLY Décembre 2007 - Disclaimer

ORBIFLY MET'MAP TEAM :

Programmation & Développement : Alexandra Zaïnal
Sur une idée originale de : Baudouin d'Aumeries
Soutien technique & logistique : Manuel Goepfert
Assistance : Marc-Olivier Méhu




SOURCES & CREDITS :

   NOAA